Time;durP1;ratioP1;P1;durP2;ratioP2;P2;SDS_P1;SDS_P2;PMS_P1;PMS_P2;Temp;Humidity;BMP_temperature;BMP_pressure;BME280_temperature;BME280_humidity;BME280_pressure;Samples;Min_cycle;Max_cycle;Signal;HPM_P1;HPM_P2
2023/08/26 00:01:02;;;;;;;14.47;10.67;;;;;;;;;;5014574;28;20767;-57
2023/08/26 00:03:27;;;;;;;14.73;10.43;;;;;;;;;;5018886;28;20257;-57
2023/08/26 00:05:52;;;;;;;12.43;10.32;;;;;;;;;;5021588;28;20217;-57
2023/08/26 00:08:17;;;;;;;13.57;10.30;;;;;;;;;;5017069;28;20032;-60
2023/08/26 00:10:42;;;;;;;14.27;10.37;;;;;;;;;;5023716;28;20026;-57
2023/08/26 00:13:08;;;;;;;15.13;10.43;;;;;;;;;;5023370;28;20523;-60
2023/08/26 00:15:33;;;;;;;15.67;10.67;;;;;;;;;;5021074;28;20573;-58
2023/08/26 00:17:58;;;;;;;17.47;10.37;;;;;;;;;;5017008;28;20490;-58
2023/08/26 00:20:24;;;;;;;12.85;10.30;;;;;;;;;;5005385;28;20272;-57
2023/08/26 00:22:49;;;;;;;15.68;10.88;;;;;;;;;;5022872;28;20033;-58
2023/08/26 00:25:14;;;;;;;13.63;10.60;;;;;;;;;;5023856;28;20059;-57
2023/08/26 00:27:39;;;;;;;14.38;10.75;;;;;;;;;;5023209;28;20375;-58
2023/08/26 00:30:05;;;;;;;13.80;10.73;;;;;;;;;;5022382;28;20030;-57
2023/08/26 00:32:30;;;;;;;14.45;10.70;;;;;;;;;;5014179;28;21025;-58
2023/08/26 00:34:56;;;;;;;15.67;10.57;;;;;;;;;;5003196;28;20022;-59
2023/08/26 00:37:21;;;;;;;15.67;10.87;;;;;;;;;;5004253;28;20649;-57
2023/08/26 00:39:46;;;;;;;13.83;10.60;;;;;;;;;;4983943;28;21649;-57
2023/08/26 00:42:11;;;;;;;13.47;10.03;;;;;;;;;;5005181;28;20530;-57
2023/08/26 00:44:37;;;;;;;13.93;10.55;;;;;;;;;;5022596;28;20697;-59
2023/08/26 00:47:02;;;;;;;14.80;10.90;;;;;;;;;;5021042;28;20661;-58
2023/08/26 00:49:27;;;;;;;14.15;10.23;;;;;;;;;;5015565;28;20712;-58
2023/08/26 00:51:53;;;;;;;15.25;10.82;;;;;;;;;;5021560;28;20091;-57
2023/08/26 00:54:18;;;;;;;17.60;10.77;;;;;;;;;;5008001;28;20092;-58
2023/08/26 00:56:43;;;;;;;14.15;10.88;;;;;;;;;;5027107;28;20825;-58
2023/08/26 00:59:08;;;;;;;14.67;11.30;;;;;;;;;;5023026;28;20037;-58
2023/08/26 01:01:34;;;;;;;14.50;10.98;;;;;;;;;;5006017;28;20592;-57
2023/08/26 01:03:59;;;;;;;14.57;11.07;;;;;;;;;;5010711;28;20044;-58
2023/08/26 01:06:24;;;;;;;16.10;10.77;;;;;;;;;;5026760;28;20686;-58
2023/08/26 01:08:49;;;;;;;15.10;10.60;;;;;;;;;;5020085;28;20276;-58
2023/08/26 01:11:35;;;;;;;16.10;10.63;;;;;;;;;;5026373;28;20276;-59
2023/08/26 01:14:07;;;;;;;13.27;10.85;;;;;;;;;;5007260;28;20049;-59
2023/08/26 01:16:32;;;;;;;16.13;10.82;;;;;;;;;;5025983;28;20084;-58
2023/08/26 01:18:58;;;;;;;14.82;11.18;;;;;;;;;;5020303;28;20554;-58
2023/08/26 01:21:24;;;;;;;13.25;10.77;;;;;;;;;;5023072;28;20053;-58
2023/08/26 01:23:49;;;;;;;16.40;11.25;;;;;;;;;;4996126;28;20037;-59
2023/08/26 01:26:15;;;;;;;15.13;11.05;;;;;;;;;;5006355;28;20048;-58
2023/08/26 01:28:40;;;;;;;14.88;10.95;;;;;;;;;;4988338;28;20152;-58
2023/08/26 01:31:09;;;;;;;14.48;10.95;;;;;;;;;;4988696;28;20029;-59
2023/08/26 01:33:35;;;;;;;14.23;10.77;;;;;;;;;;4997299;28;20052;-59
2023/08/26 01:36:02;;;;;;;14.00;10.80;;;;;;;;;;5041023;28;20038;-59
2023/08/26 01:38:27;;;;;;;14.25;11.05;;;;;;;;;;5017927;28;20034;-57
2023/08/26 01:40:53;;;;;;;15.48;10.70;;;;;;;;;;4988029;28;20049;-59
2023/08/26 01:43:19;;;;;;;17.35;10.70;;;;;;;;;;4990066;28;20073;-57
2023/08/26 01:45:44;;;;;;;16.02;11.68;;;;;;;;;;4972298;28;20067;-59
2023/08/26 01:48:09;;;;;;;15.05;10.63;;;;;;;;;;5005966;28;20561;-59
2023/08/26 01:50:35;;;;;;;14.80;10.37;;;;;;;;;;5007405;28;20046;-58
2023/08/26 01:53:00;;;;;;;12.17;10.70;;;;;;;;;;5001596;28;20038;-58
2023/08/26 01:55:25;;;;;;;13.87;10.83;;;;;;;;;;4990335;28;20049;-57
2023/08/26 01:57:50;;;;;;;14.07;10.60;;;;;;;;;;4993068;28;20817;-58
2023/08/26 02:00:16;;;;;;;16.47;10.97;;;;;;;;;;4991116;28;20285;-58
2023/08/26 02:02:41;;;;;;;14.70;10.82;;;;;;;;;;4991492;28;20309;-56
2023/08/26 02:05:06;;;;;;;17.13;11.23;;;;;;;;;;5007240;28;20602;-58
2023/08/26 02:07:32;;;;;;;13.55;10.30;;;;;;;;;;4986275;28;20038;-59
2023/08/26 02:09:57;;;;;;;17.97;11.47;;;;;;;;;;4999691;28;20034;-57
2023/08/26 02:12:22;;;;;;;14.43;11.17;;;;;;;;;;5025849;28;20379;-57
2023/08/26 02:14:47;;;;;;;14.33;11.37;;;;;;;;;;5026413;28;20052;-58
2023/08/26 02:17:13;;;;;;;14.07;10.80;;;;;;;;;;5025381;28;20039;-58
2023/08/26 02:19:38;;;;;;;14.70;10.90;;;;;;;;;;5006541;28;20057;-57
2023/08/26 02:22:03;;;;;;;13.33;10.63;;;;;;;;;;5010127;28;20061;-58
2023/08/26 02:24:29;;;;;;;18.50;11.55;;;;;;;;;;4988234;28;20049;-59
2023/08/26 02:26:54;;;;;;;13.88;11.23;;;;;;;;;;4995421;28;20033;-59
2023/08/26 02:29:19;;;;;;;14.40;10.83;;;;;;;;;;5020288;28;20038;-59
2023/08/26 02:31:45;;;;;;;15.90;11.47;;;;;;;;;;5006792;28;20825;-58
2023/08/26 02:34:10;;;;;;;14.60;11.43;;;;;;;;;;5006836;28;20264;-58
2023/08/26 02:36:35;;;;;;;14.70;10.27;;;;;;;;;;5025123;28;20045;-58
2023/08/26 02:39:00;;;;;;;15.40;11.30;;;;;;;;;;5024213;28;20037;-59
2023/08/26 02:41:25;;;;;;;15.23;11.33;;;;;;;;;;5023342;28;20049;-57
2023/08/26 02:43:51;;;;;;;14.70;11.23;;;;;;;;;;5016206;28;20034;-57
2023/08/26 02:46:16;;;;;;;15.70;10.77;;;;;;;;;;5011315;28;20044;-58
2023/08/26 02:48:41;;;;;;;17.53;11.57;;;;;;;;;;5024334;28;20318;-58
2023/08/26 02:51:06;;;;;;;14.57;11.27;;;;;;;;;;5024217;28;20295;-60
2023/08/26 02:53:32;;;;;;;16.48;11.70;;;;;;;;;;4996022;28;20042;-59
2023/08/26 02:55:57;;;;;;;13.83;10.80;;;;;;;;;;5005011;28;20030;-57
2023/08/26 02:58:22;;;;;;;14.45;10.77;;;;;;;;;;5004807;28;20121;-58
2023/08/26 03:00:48;;;;;;;15.32;11.45;;;;;;;;;;4999205;28;20029;-56
2023/08/26 03:03:13;;;;;;;15.80;11.43;;;;;;;;;;5005504;28;20038;-59
2023/08/26 03:05:38;;;;;;;15.68;11.00;;;;;;;;;;4987024;28;20042;-57
2023/08/26 03:08:04;;;;;;;13.43;11.17;;;;;;;;;;5004798;28;20052;-58
2023/08/26 03:10:30;;;;;;;14.13;10.90;;;;;;;;;;5008076;28;20284;-58
2023/08/26 03:12:55;;;;;;;14.18;11.05;;;;;;;;;;4987516;28;20096;-57
2023/08/26 03:15:20;;;;;;;13.43;10.73;;;;;;;;;;5004025;28;20448;-57
2023/08/26 03:17:45;;;;;;;16.48;10.93;;;;;;;;;;5004867;28;20306;-59
2023/08/26 03:20:11;;;;;;;15.37;11.10;;;;;;;;;;5000098;28;20072;-58
2023/08/26 03:22:36;;;;;;;15.55;10.57;;;;;;;;;;5024116;28;20296;-58
2023/08/26 03:25:01;;;;;;;18.07;11.80;;;;;;;;;;5005833;28;20035;-59
2023/08/26 03:27:27;;;;;;;13.68;11.10;;;;;;;;;;5023550;28;20276;-58
2023/08/26 03:29:52;;;;;;;15.70;11.25;;;;;;;;;;5022378;28;20038;-57
2023/08/26 03:32:17;;;;;;;16.60;11.37;;;;;;;;;;5023473;28;20459;-56
2023/08/26 03:34:42;;;;;;;15.97;11.20;;;;;;;;;;5020822;28;20325;-58
2023/08/26 03:37:08;;;;;;;15.73;11.13;;;;;;;;;;5002653;28;20117;-57
2023/08/26 03:39:34;;;;;;;13.50;11.07;;;;;;;;;;5009160;28;20288;-59
2023/08/26 03:41:59;;;;;;;14.20;10.27;;;;;;;;;;5022057;28;20049;-57
2023/08/26 03:44:24;;;;;;;14.80;10.73;;;;;;;;;;5023793;28;20855;-57
2023/08/26 03:46:49;;;;;;;14.32;11.45;;;;;;;;;;5005790;28;20033;-57
2023/08/26 03:49:15;;;;;;;14.32;11.27;;;;;;;;;;5021395;28;20038;-58
2023/08/26 03:51:40;;;;;;;16.23;11.93;;;;;;;;;;4974720;28;20581;-57
2023/08/26 03:54:05;;;;;;;14.27;11.20;;;;;;;;;;5004045;28;20883;-58
2023/08/26 03:56:30;;;;;;;15.38;11.25;;;;;;;;;;5005384;28;20586;-58
2023/08/26 03:58:57;;;;;;;13.97;10.13;;;;;;;;;;5024242;28;20175;-59
2023/08/26 04:01:22;;;;;;;15.90;10.82;;;;;;;;;;5018378;28;20309;-57
2023/08/26 04:03:51;;;;;;;15.65;10.88;;;;;;;;;;5003593;28;20101;-59
2023/08/26 04:06:17;;;;;;;16.27;10.75;;;;;;;;;;5011070;28;20542;-58
2023/08/26 04:08:42;;;;;;;14.88;11.10;;;;;;;;;;5020070;28;20587;-58
2023/08/26 04:11:08;;;;;;;16.65;11.38;;;;;;;;;;5016548;28;20129;-57
2023/08/26 04:13:33;;;;;;;16.07;10.80;;;;;;;;;;5022364;28;20029;-57
2023/08/26 04:16:02;;;;;;;14.40;10.90;;;;;;;;;;5005643;28;20374;-57
2023/08/26 04:18:27;;;;;;;15.15;11.35;;;;;;;;;;5003755;28;20277;-56
2023/08/26 04:20:52;;;;;;;16.10;10.37;;;;;;;;;;4987439;28;20042;-57
2023/08/26 04:23:18;;;;;;;13.93;10.23;;;;;;;;;;5004272;28;20352;-58
2023/08/26 04:25:46;;;;;;;14.73;10.53;;;;;;;;;;5001228;28;20356;-57
2023/08/26 04:28:11;;;;;;;14.38;10.77;;;;;;;;;;5013579;28;20284;-57
2023/08/26 04:30:37;;;;;;;12.50;10.60;;;;;;;;;;5014299;28;20052;-56
2023/08/26 04:33:04;;;;;;;13.10;11.02;;;;;;;;;;5009411;28;20038;-55
2023/08/26 04:35:29;;;;;;;17.42;10.27;;;;;;;;;;5003791;28;20038;-56
2023/08/26 04:37:54;;;;;;;13.45;10.73;;;;;;;;;;4999474;28;20106;-57
2023/08/26 04:40:19;;;;;;;13.97;11.17;;;;;;;;;;5003948;28;20037;-56
2023/08/26 04:42:45;;;;;;;15.37;11.73;;;;;;;;;;4996513;28;20298;-57
2023/08/26 04:45:14;;;;;;;14.35;11.32;;;;;;;;;;4998590;28;20037;-58
2023/08/26 04:47:39;;;;;;;15.70;11.27;;;;;;;;;;5007525;28;20460;-57
2023/08/26 04:50:05;;;;;;;15.63;11.70;;;;;;;;;;4998996;28;20034;-56
2023/08/26 04:52:30;;;;;;;15.75;11.20;;;;;;;;;;4986418;28;20675;-57
2023/08/26 04:54:56;;;;;;;15.03;11.37;;;;;;;;;;5012390;28;20034;-57
2023/08/26 04:57:22;;;;;;;15.15;11.27;;;;;;;;;;4998664;28;20292;-56
2023/08/26 04:59:47;;;;;;;12.70;11.30;;;;;;;;;;5007310;28;20674;-56
2023/08/26 05:02:12;;;;;;;19.38;12.45;;;;;;;;;;4994491;28;20058;-56
2023/08/26 05:04:37;;;;;;;14.00;11.20;;;;;;;;;;5001952;28;20073;-57
2023/08/26 05:07:03;;;;;;;17.27;12.07;;;;;;;;;;4990065;28;20297;-56
2023/08/26 05:09:28;;;;;;;18.00;12.93;;;;;;;;;;4983722;28;20410;-56
2023/08/26 05:11:55;;;;;;;15.97;11.67;;;;;;;;;;5008142;28;20137;-57
2023/08/26 05:14:21;;;;;;;18.77;12.18;;;;;;;;;;5012061;28;20045;-57
2023/08/26 05:16:46;;;;;;;18.65;12.25;;;;;;;;;;4996466;28;20111;-56
2023/08/26 05:19:11;;;;;;;18.52;12.75;;;;;;;;;;4990030;28;20058;-57
2023/08/26 05:21:36;;;;;;;15.33;12.27;;;;;;;;;;5004983;28;20471;-58
2023/08/26 05:24:03;;;;;;;19.93;12.70;;;;;;;;;;5004250;28;20293;-56
2023/08/26 05:26:28;;;;;;;18.25;12.45;;;;;;;;;;4993960;28;20435;-57
2023/08/26 05:28:53;;;;;;;16.80;13.50;;;;;;;;;;5001617;28;20034;-56
2023/08/26 05:31:19;;;;;;;15.87;12.17;;;;;;;;;;5002727;28;20324;-55
2023/08/26 05:33:44;;;;;;;18.47;14.73;;;;;;;;;;5003986;28;20355;-56
2023/08/26 05:36:09;;;;;;;17.50;12.30;;;;;;;;;;5009988;28;20034;-56
2023/08/26 05:38:34;;;;;;;23.63;12.23;;;;;;;;;;4991275;28;20799;-56
2023/08/26 05:41:00;;;;;;;17.85;12.85;;;;;;;;;;4957241;28;1162318;-57
2023/08/26 05:43:29;;;;;;;16.37;11.70;;;;;;;;;;4992968;28;20073;-56
2023/08/26 05:45:55;;;;;;;17.35;11.82;;;;;;;;;;4982979;28;20654;-56
2023/08/26 05:48:20;;;;;;;14.80;11.57;;;;;;;;;;4994260;28;20107;-59
2023/08/26 05:50:45;;;;;;;15.40;12.17;;;;;;;;;;5004011;28;20048;-56
2023/08/26 05:53:11;;;;;;;15.87;11.67;;;;;;;;;;4985075;28;20298;-56
2023/08/26 05:55:36;;;;;;;16.07;11.67;;;;;;;;;;4992503;28;20046;-57
2023/08/26 05:58:01;;;;;;;15.68;11.80;;;;;;;;;;4993521;28;20293;-58
2023/08/26 06:00:26;;;;;;;15.30;11.52;;;;;;;;;;4992140;28;20153;-56
2023/08/26 06:02:52;;;;;;;13.60;10.82;;;;;;;;;;4999864;28;20050;-56
2023/08/26 06:05:17;;;;;;;17.07;11.33;;;;;;;;;;4997307;28;20267;-56
2023/08/26 06:07:42;;;;;;;15.60;11.50;;;;;;;;;;4977182;28;20401;-56
2023/08/26 06:10:08;;;;;;;18.13;11.10;;;;;;;;;;4992586;28;20038;-56
2023/08/26 06:12:33;;;;;;;16.02;10.93;;;;;;;;;;5002452;28;20034;-57
2023/08/26 06:14:58;;;;;;;15.33;11.30;;;;;;;;;;4985147;28;20536;-56
2023/08/26 06:17:23;;;;;;;14.02;11.77;;;;;;;;;;4995677;28;20646;-58
2023/08/26 06:19:49;;;;;;;15.47;12.00;;;;;;;;;;4997946;28;20038;-57
2023/08/26 06:22:14;;;;;;;14.93;11.13;;;;;;;;;;4996180;28;20133;-57
2023/08/26 06:24:39;;;;;;;19.07;11.47;;;;;;;;;;4997989;28;20794;-57
2023/08/26 06:27:06;;;;;;;20.77;14.00;;;;;;;;;;5001621;28;20280;-57
2023/08/26 06:29:31;;;;;;;18.95;12.45;;;;;;;;;;4992097;28;20319;-57
2023/08/26 06:31:56;;;;;;;18.13;12.10;;;;;;;;;;4996575;28;20412;-57
2023/08/26 06:34:21;;;;;;;15.47;11.77;;;;;;;;;;5003607;28;20277;-57
2023/08/26 06:36:47;;;;;;;19.80;12.60;;;;;;;;;;4998025;28;20304;-57
2023/08/26 06:39:12;;;;;;;17.23;12.17;;;;;;;;;;5008371;28;20297;-58
2023/08/26 06:41:37;;;;;;;13.82;11.27;;;;;;;;;;5001986;28;20789;-58
2023/08/26 06:44:03;;;;;;;15.00;11.10;;;;;;;;;;4986359;28;20624;-59
2023/08/26 06:46:28;;;;;;;15.25;10.80;;;;;;;;;;5010042;28;20293;-58
2023/08/26 06:48:53;;;;;;;14.00;10.33;;;;;;;;;;4995150;28;20045;-58
2023/08/26 06:51:18;;;;;;;14.97;11.13;;;;;;;;;;4977823;28;20288;-58
2023/08/26 06:53:44;;;;;;;13.77;10.30;;;;;;;;;;4983802;28;20389;-57
2023/08/26 06:56:09;;;;;;;14.13;10.33;;;;;;;;;;5009788;28;20088;-58
2023/08/26 06:58:34;;;;;;;15.50;10.43;;;;;;;;;;4994696;28;20130;-58
2023/08/26 07:00:59;;;;;;;12.57;10.07;;;;;;;;;;4992298;28;20289;-58
2023/08/26 07:03:25;;;;;;;13.20;9.63;;;;;;;;;;4993684;28;20911;-61
2023/08/26 07:05:50;;;;;;;13.77;9.50;;;;;;;;;;5013280;28;20297;-57
2023/08/26 07:08:16;;;;;;;13.00;10.13;;;;;;;;;;5008681;28;20503;-58
2023/08/26 07:10:44;;;;;;;12.07;9.65;;;;;;;;;;4999691;28;20512;-57
2023/08/26 07:13:10;;;;;;;14.70;9.27;;;;;;;;;;5012209;28;20109;-58
2023/08/26 07:15:35;;;;;;;12.73;9.50;;;;;;;;;;4979107;28;20195;-58
2023/08/26 07:18:01;;;;;;;13.45;9.40;;;;;;;;;;4995796;28;20048;-59
2023/08/26 07:20:26;;;;;;;12.57;8.75;;;;;;;;;;5011569;28;20030;-58
2023/08/26 07:22:52;;;;;;;12.57;9.00;;;;;;;;;;5000803;28;20050;-60
2023/08/26 07:25:17;;;;;;;12.93;9.45;;;;;;;;;;4996843;28;20091;-58
2023/08/26 07:27:43;;;;;;;12.52;9.30;;;;;;;;;;4999027;28;20073;-58
2023/08/26 07:30:08;;;;;;;12.63;8.50;;;;;;;;;;4992129;28;20037;-58
2023/08/26 07:32:33;;;;;;;11.13;8.50;;;;;;;;;;5001407;28;20061;-58
2023/08/26 07:34:59;;;;;;;11.43;9.03;;;;;;;;;;5002238;28;20034;-57
2023/08/26 07:37:24;;;;;;;12.63;8.82;;;;;;;;;;4987551;28;20050;-58
2023/08/26 07:39:49;;;;;;;10.53;8.90;;;;;;;;;;5008871;28;20045;-60
2023/08/26 07:42:15;;;;;;;11.18;8.50;;;;;;;;;;5014315;28;20319;-58
2023/08/26 07:44:40;;;;;;;11.23;8.60;;;;;;;;;;5006067;28;20042;-59
2023/08/26 07:47:05;;;;;;;13.03;8.60;;;;;;;;;;5001712;28;20396;-59
2023/08/26 07:49:31;;;;;;;12.23;8.75;;;;;;;;;;5012901;28;20293;-59
2023/08/26 07:51:56;;;;;;;12.07;8.43;;;;;;;;;;5007892;28;20190;-58
2023/08/26 07:54:21;;;;;;;12.63;8.03;;;;;;;;;;5012344;28;20132;-59
2023/08/26 07:56:46;;;;;;;10.90;8.17;;;;;;;;;;5001941;28;20288;-59
2023/08/26 07:59:12;;;;;;;10.57;8.10;;;;;;;;;;4994550;28;20477;-59
2023/08/26 08:01:37;;;;;;;12.63;8.93;;;;;;;;;;4989118;28;20312;-58
2023/08/26 08:04:02;;;;;;;11.18;8.10;;;;;;;;;;5014443;28;20070;-58
2023/08/26 08:06:27;;;;;;;10.73;8.40;;;;;;;;;;4996295;28;20464;-58
2023/08/26 08:08:53;;;;;;;12.27;7.83;;;;;;;;;;4981505;28;20300;-59
2023/08/26 08:11:18;;;;;;;10.67;8.00;;;;;;;;;;4992714;28;20304;-59
2023/08/26 08:13:43;;;;;;;10.33;8.37;;;;;;;;;;4982179;28;20042;-58
2023/08/26 08:16:08;;;;;;;10.07;7.70;;;;;;;;;;4994148;28;20069;-57
2023/08/26 08:18:34;;;;;;;11.37;8.57;;;;;;;;;;4986308;28;20308;-58
2023/08/26 08:20:59;;;;;;;13.25;8.20;;;;;;;;;;5001532;28;20041;-58
2023/08/26 08:23:24;;;;;;;10.20;8.10;;;;;;;;;;4999593;28;20069;-58
2023/08/26 08:25:49;;;;;;;10.43;7.47;;;;;;;;;;4983599;28;20277;-59
2023/08/26 08:28:14;;;;;;;9.13;7.57;;;;;;;;;;4998997;28;20042;-59
2023/08/26 08:30:40;;;;;;;11.37;8.03;;;;;;;;;;4972234;28;20068;-58
2023/08/26 08:33:05;;;;;;;9.83;7.80;;;;;;;;;;4979526;28;20289;-59
2023/08/26 08:35:30;;;;;;;12.27;7.77;;;;;;;;;;4994855;28;20042;-59
2023/08/26 08:37:55;;;;;;;9.97;7.30;;;;;;;;;;5006728;28;20050;-58
2023/08/26 08:40:21;;;;;;;10.80;8.00;;;;;;;;;;4975780;28;20728;-59
2023/08/26 08:42:47;;;;;;;12.27;7.97;;;;;;;;;;5001702;28;20906;-59
2023/08/26 08:45:12;;;;;;;11.60;7.93;;;;;;;;;;4985551;28;20041;-59
2023/08/26 08:47:38;;;;;;;10.13;7.70;;;;;;;;;;5004925;28;20062;-60
2023/08/26 08:50:03;;;;;;;9.67;8.00;;;;;;;;;;4995000;28;20030;-58
2023/08/26 08:52:28;;;;;;;10.32;8.02;;;;;;;;;;4984465;28;20410;-57
2023/08/26 08:54:54;;;;;;;11.43;7.93;;;;;;;;;;4985550;28;20105;-58
2023/08/26 08:57:21;;;;;;;9.30;8.07;;;;;;;;;;4969467;28;20285;-59
2023/08/26 08:59:46;;;;;;;9.68;8.20;;;;;;;;;;4971705;28;20523;-59
2023/08/26 09:02:12;;;;;;;11.32;7.80;;;;;;;;;;4989979;28;20050;-59
2023/08/26 09:04:37;;;;;;;11.02;8.32;;;;;;;;;;5005350;28;20527;-60
2023/08/26 09:07:03;;;;;;;10.40;7.93;;;;;;;;;;4976090;28;20483;-61
2023/08/26 09:09:28;;;;;;;11.85;8.63;;;;;;;;;;5009377;28;20308;-59
2023/08/26 09:11:53;;;;;;;11.32;8.35;;;;;;;;;;5005627;28;20054;-59
2023/08/26 09:14:19;;;;;;;10.80;8.50;;;;;;;;;;4992785;28;20434;-60
2023/08/26 09:16:44;;;;;;;11.50;8.48;;;;;;;;;;4996372;28;20417;-61
2023/08/26 09:19:10;;;;;;;10.68;8.48;;;;;;;;;;4997605;28;20470;-59
2023/08/26 09:21:44;;;;;;;11.13;8.57;;;;;;;;;;5011576;28;20765;-59
2023/08/26 09:24:10;;;;;;;10.18;8.82;;;;;;;;;;5000829;28;20643;-59
2023/08/26 09:26:35;;;;;;;11.20;8.85;;;;;;;;;;4990945;28;20137;-58
2023/08/26 09:29:00;;;;;;;10.83;8.20;;;;;;;;;;5001874;28;20469;-58
2023/08/26 09:31:26;;;;;;;9.93;8.67;;;;;;;;;;4995601;28;20288;-58
2023/08/26 09:33:59;;;;;;;10.97;9.20;;;;;;;;;;4983359;28;20046;-59
2023/08/26 09:36:50;;;;;;;11.15;9.25;;;;;;;;;;4992186;28;20372;-59
2023/08/26 09:39:16;;;;;;;12.63;9.50;;;;;;;;;;4992968;28;20128;-59
2023/08/26 09:41:42;;;;;;;12.30;9.00;;;;;;;;;;4997983;28;20149;-58
2023/08/26 09:44:08;;;;;;;10.48;9.23;;;;;;;;;;5009720;28;20748;-58
2023/08/26 09:46:35;;;;;;;11.00;9.00;;;;;;;;;;4992144;28;20097;-58
2023/08/26 09:49:02;;;;;;;11.35;9.15;;;;;;;;;;4991810;28;20034;-57
2023/08/26 09:51:28;;;;;;;12.15;8.15;;;;;;;;;;4990635;28;20045;-58
2023/08/26 09:53:53;;;;;;;10.90;8.73;;;;;;;;;;4993528;28;20500;-59
2023/08/26 09:56:19;;;;;;;10.85;8.35;;;;;;;;;;4996950;28;20034;-58
2023/08/26 09:58:45;;;;;;;10.18;8.80;;;;;;;;;;4996931;28;20037;-58
2023/08/26 10:01:10;;;;;;;9.95;8.20;;;;;;;;;;4988953;28;20038;-58
2023/08/26 10:03:36;;;;;;;11.03;8.60;;;;;;;;;;5005152;28;21659;-58
2023/08/26 10:06:01;;;;;;;10.43;8.32;;;;;;;;;;4995266;28;20048;-59
2023/08/26 10:08:27;;;;;;;9.33;8.10;;;;;;;;;;4995180;28;20954;-59
2023/08/26 10:10:53;;;;;;;8.95;8.02;;;;;;;;;;5010819;28;20825;-56
2023/08/26 10:13:25;;;;;;;10.23;8.40;;;;;;;;;;4973315;28;20031;-57
2023/08/26 10:15:51;;;;;;;8.82;7.35;;;;;;;;;;4990669;28;20030;-58
2023/08/26 10:18:20;;;;;;;9.48;7.82;;;;;;;;;;4977532;28;20499;-59
2023/08/26 10:20:45;;;;;;;10.17;8.03;;;;;;;;;;4992691;28;20079;-58
2023/08/26 10:23:11;;;;;;;8.77;7.83;;;;;;;;;;5007693;28;20086;-59
2023/08/26 10:25:37;;;;;;;8.60;7.50;;;;;;;;;;5005477;28;20821;-58
2023/08/26 10:28:05;;;;;;;10.13;7.63;;;;;;;;;;4972136;28;20587;-60
2023/08/26 10:30:31;;;;;;;8.27;7.35;;;;;;;;;;5004688;28;20391;-59
2023/08/26 10:33:00;;;;;;;8.80;7.90;;;;;;;;;;4991655;28;20044;-59
2023/08/26 10:35:25;;;;;;;8.57;7.35;;;;;;;;;;5010084;28;20070;-57
2023/08/26 10:37:51;;;;;;;8.90;7.47;;;;;;;;;;4992495;28;20065;-58
2023/08/26 10:40:17;;;;;;;7.68;6.82;;;;;;;;;;4973535;28;20375;-58
2023/08/26 10:43:01;;;;;;;8.15;6.88;;;;;;;;;;4990932;28;20172;-58
2023/08/26 10:45:26;;;;;;;7.95;6.85;;;;;;;;;;4990251;28;20038;-59
2023/08/26 10:47:52;;;;;;;8.00;7.20;;;;;;;;;;4993389;28;20042;-58
2023/08/26 10:50:18;;;;;;;8.07;7.07;;;;;;;;;;4992305;28;20292;-58
2023/08/26 10:52:43;;;;;;;7.53;6.78;;;;;;;;;;4992316;28;20041;-58
2023/08/26 10:55:13;;;;;;;7.03;6.32;;;;;;;;;;4993716;28;20423;-60
2023/08/26 10:57:42;;;;;;;8.70;7.22;;;;;;;;;;4992508;28;20030;-57
2023/08/26 11:00:08;;;;;;;8.38;6.78;;;;;;;;;;4989451;28;20075;-57
2023/08/26 11:02:33;;;;;;;9.07;7.20;;;;;;;;;;4989437;28;22117;-59
2023/08/26 11:04:58;;;;;;;7.87;6.97;;;;;;;;;;4973637;28;20065;-58
2023/08/26 11:07:23;;;;;;;7.93;6.37;;;;;;;;;;4991829;28;20348;-57
2023/08/26 11:09:49;;;;;;;8.37;6.63;;;;;;;;;;4991705;28;20605;-58
2023/08/26 11:12:27;;;;;;;8.83;6.80;;;;;;;;;;4990182;28;20712;-57
2023/08/26 11:14:53;;;;;;;8.70;7.13;;;;;;;;;;4994090;28;20037;-58
2023/08/26 11:17:19;;;;;;;8.05;7.03;;;;;;;;;;4991917;28;21576;-57
2023/08/26 11:19:44;;;;;;;10.45;6.82;;;;;;;;;;4995761;28;20479;-56
2023/08/26 11:22:10;;;;;;;8.00;6.40;;;;;;;;;;5007322;28;20516;-58
2023/08/26 11:24:35;;;;;;;8.65;6.78;;;;;;;;;;5006335;28;20782;-58
2023/08/26 11:27:01;;;;;;;7.63;6.47;;;;;;;;;;4989415;28;20136;-58
2023/08/26 11:29:26;;;;;;;6.95;6.05;;;;;;;;;;4988247;28;20530;-59
2023/08/26 11:31:51;;;;;;;8.80;6.20;;;;;;;;;;4990284;28;20066;-58
2023/08/26 11:34:21;;;;;;;7.90;6.28;;;;;;;;;;5007726;28;20037;-59
2023/08/26 11:36:46;;;;;;;7.15;6.10;;;;;;;;;;4993251;28;20037;-58
2023/08/26 11:39:18;;;;;;;7.93;6.63;;;;;;;;;;4993913;28;20478;-57
2023/08/26 11:41:43;;;;;;;6.88;6.18;;;;;;;;;;5004193;28;20058;-58
2023/08/26 11:44:15;;;;;;;7.33;6.47;;;;;;;;;;4972498;28;20029;-59
2023/08/26 11:46:40;;;;;;;6.88;6.10;;;;;;;;;;4991150;28;20284;-57
2023/08/26 11:49:07;;;;;;;6.90;6.20;;;;;;;;;;4989602;28;20026;-57
2023/08/26 11:51:32;;;;;;;7.90;6.80;;;;;;;;;;4969966;28;20030;-57
2023/08/26 11:53:57;;;;;;;7.20;5.75;;;;;;;;;;4971870;28;20034;-57
2023/08/26 11:56:22;;;;;;;7.80;6.67;;;;;;;;;;4972814;28;20092;-58
2023/08/26 11:58:48;;;;;;;6.68;5.80;;;;;;;;;;4972839;28;20271;-57
2023/08/26 12:01:13;;;;;;;6.80;6.03;;;;;;;;;;4988406;28;20037;-57
2023/08/26 12:03:42;;;;;;;6.72;6.03;;;;;;;;;;4990303;28;20821;-57
2023/08/26 12:06:07;;;;;;;6.53;5.65;;;;;;;;;;5003641;28;20079;-58
2023/08/26 12:08:33;;;;;;;7.63;6.00;;;;;;;;;;4989715;28;20046;-58
2023/08/26 12:10:58;;;;;;;7.28;5.78;;;;;;;;;;5001508;28;20289;-58
2023/08/26 12:13:24;;;;;;;7.03;5.93;;;;;;;;;;4988966;28;20049;-59
2023/08/26 12:15:49;;;;;;;7.47;5.83;;;;;;;;;;5005896;28;20666;-58
2023/08/26 12:18:14;;;;;;;7.63;5.45;;;;;;;;;;4987664;28;20058;-58
2023/08/26 12:20:44;;;;;;;6.68;5.57;;;;;;;;;;4973109;28;20097;-58
2023/08/26 12:23:09;;;;;;;6.53;5.55;;;;;;;;;;4977010;28;20050;-58
2023/08/26 12:25:35;;;;;;;6.05;5.40;;;;;;;;;;4978633;28;20053;-57
2023/08/26 12:28:22;;;;;;;6.60;5.75;;;;;;;;;;4988365;28;21027;-58
2023/08/26 12:30:47;;;;;;;6.13;5.53;;;;;;;;;;4986859;28;20053;-58
2023/08/26 12:33:12;;;;;;;6.47;5.65;;;;;;;;;;4987626;28;20038;-58
2023/08/26 12:35:38;;;;;;;7.88;5.90;;;;;;;;;;4986387;28;20042;-57
2023/08/26 12:38:03;;;;;;;6.30;5.40;;;;;;;;;;4968304;28;20053;-57
2023/08/26 12:40:30;;;;;;;6.03;5.43;;;;;;;;;;4985521;28;20046;-57
2023/08/26 12:42:55;;;;;;;6.68;5.30;;;;;;;;;;4985976;28;20494;-57
2023/08/26 12:45:20;;;;;;;6.23;5.50;;;;;;;;;;5002144;28;20041;-59
2023/08/26 12:47:45;;;;;;;5.90;5.30;;;;;;;;;;5002022;28;20276;-57
2023/08/26 12:50:11;;;;;;;7.13;5.90;;;;;;;;;;5000303;28;20364;-59
2023/08/26 12:52:36;;;;;;;5.73;5.13;;;;;;;;;;4991300;28;20281;-58
2023/08/26 12:55:01;;;;;;;6.57;5.85;;;;;;;;;;4991344;28;20324;-58
2023/08/26 12:57:27;;;;;;;6.32;5.38;;;;;;;;;;4968218;28;20461;-57
2023/08/26 12:59:52;;;;;;;5.83;4.90;;;;;;;;;;4986174;28;20026;-59
2023/08/26 13:02:17;;;;;;;5.65;5.05;;;;;;;;;;4977288;28;20363;-57
2023/08/26 13:04:42;;;;;;;5.53;4.77;;;;;;;;;;4998467;28;20049;-58
2023/08/26 13:07:08;;;;;;;6.40;5.30;;;;;;;;;;4998947;28;20049;-57
2023/08/26 13:09:33;;;;;;;5.83;4.77;;;;;;;;;;4992448;28;20056;-59
2023/08/26 13:11:58;;;;;;;5.30;4.72;;;;;;;;;;4994055;28;20385;-58
2023/08/26 13:14:23;;;;;;;6.17;4.80;;;;;;;;;;4995945;28;20472;-59
2023/08/26 13:16:49;;;;;;;5.45;4.72;;;;;;;;;;4993823;28;20547;-59
2023/08/26 13:19:14;;;;;;;6.07;5.27;;;;;;;;;;4975738;28;20034;-58
2023/08/26 13:21:39;;;;;;;6.50;4.80;;;;;;;;;;4994109;28;20116;-57
2023/08/26 13:24:05;;;;;;;5.50;4.60;;;;;;;;;;4995982;28;20046;-58
2023/08/26 13:26:30;;;;;;;6.03;4.97;;;;;;;;;;5019915;28;20061;-57
2023/08/26 13:28:55;;;;;;;5.53;4.87;;;;;;;;;;4998227;28;20120;-58
2023/08/26 13:31:20;;;;;;;5.97;5.00;;;;;;;;;;4982620;28;20070;-57
2023/08/26 13:33:45;;;;;;;5.20;4.70;;;;;;;;;;4995743;28;20138;-58
2023/08/26 13:36:11;;;;;;;6.37;4.97;;;;;;;;;;5013028;28;20042;-57
2023/08/26 13:38:36;;;;;;;5.20;4.50;;;;;;;;;;4995531;28;20292;-60
2023/08/26 13:41:01;;;;;;;5.63;4.50;;;;;;;;;;5001230;28;20131;-59
2023/08/26 13:43:26;;;;;;;5.32;4.53;;;;;;;;;;4979148;28;20309;-60
2023/08/26 13:45:52;;;;;;;6.20;4.80;;;;;;;;;;4994807;28;20064;-60
2023/08/26 13:48:17;;;;;;;6.35;4.40;;;;;;;;;;4993375;28;20044;-58
2023/08/26 13:50:42;;;;;;;5.13;4.60;;;;;;;;;;4992097;28;20042;-58
2023/08/26 13:53:08;;;;;;;5.03;4.53;;;;;;;;;;4990713;28;20158;-58
2023/08/26 13:55:33;;;;;;;4.77;4.27;;;;;;;;;;4995159;28;20057;-59
2023/08/26 13:57:58;;;;;;;5.70;4.47;;;;;;;;;;4997497;28;20136;-59
2023/08/26 14:00:23;;;;;;;4.80;4.10;;;;;;;;;;4990567;28;20301;-59
2023/08/26 14:02:49;;;;;;;5.20;4.50;;;;;;;;;;4990375;28;20050;-61
2023/08/26 14:05:14;;;;;;;4.83;4.33;;;;;;;;;;4993836;28;20034;-60
2023/08/26 14:07:39;;;;;;;6.03;4.70;;;;;;;;;;4994349;28;20042;-60
2023/08/26 14:10:05;;;;;;;5.28;4.32;;;;;;;;;;4993726;28;20291;-59
2023/08/26 14:12:30;;;;;;;4.78;4.28;;;;;;;;;;5005708;28;20159;-58
2023/08/26 14:14:55;;;;;;;4.93;4.27;;;;;;;;;;4982504;28;20034;-58
2023/08/26 14:17:21;;;;;;;6.07;4.60;;;;;;;;;;4994772;28;20293;-59
2023/08/26 14:19:46;;;;;;;5.50;4.43;;;;;;;;;;4990024;28;20116;-58